sensor_id;sensor_type;location;lat;lon;timestamp;P1;durP1;ratioP1;P2;durP2;ratioP2
21183;SDS011;18176;49.502;11.754;2022-10-31T00:00:47;19.67;;;9.87;;
21183;SDS011;18176;49.502;11.754;2022-10-31T00:04:48;33.93;;;11.77;;
21183;SDS011;18176;49.502;11.754;2022-10-31T00:08:54;21.70;;;10.33;;
21183;SDS011;18176;49.502;11.754;2022-10-31T00:12:57;17.50;;;9.77;;
21183;SDS011;18176;49.502;11.754;2022-10-31T00:16:57;19.87;;;10.33;;
21183;SDS011;18176;49.502;11.754;2022-10-31T00:21:00;25.10;;;10.33;;
21183;SDS011;18176;49.502;11.754;2022-10-31T00:25:05;22.70;;;10.47;;
21183;SDS011;18176;49.502;11.754;2022-10-31T00:29:05;24.17;;;11.43;;
21183;SDS011;18176;49.502;11.754;2022-10-31T00:33:06;27.67;;;11.20;;
21183;SDS011;18176;49.502;11.754;2022-10-31T00:37:06;20.00;;;10.30;;
21183;SDS011;18176;49.502;11.754;2022-10-31T00:41:09;20.73;;;10.13;;
21183;SDS011;18176;49.502;11.754;2022-10-31T00:45:10;22.60;;;10.00;;
21183;SDS011;18176;49.502;11.754;2022-10-31T00:49:10;29.57;;;11.90;;
21183;SDS011;18176;49.502;11.754;2022-10-31T00:53:11;21.97;;;10.70;;
21183;SDS011;18176;49.502;11.754;2022-10-31T00:57:14;16.13;;;9.53;;
21183;SDS011;18176;49.502;11.754;2022-10-31T01:01:15;17.87;;;8.80;;
21183;SDS011;18176;49.502;11.754;2022-10-31T01:05:16;17.00;;;9.40;;
21183;SDS011;18176;49.502;11.754;2022-10-31T01:09:16;28.60;;;13.40;;
21183;SDS011;18176;49.502;11.754;2022-10-31T01:13:20;24.57;;;11.80;;
21183;SDS011;18176;49.502;11.754;2022-10-31T01:17:20;25.37;;;12.03;;
21183;SDS011;18176;49.502;11.754;2022-10-31T01:21:22;21.47;;;10.10;;
21183;SDS011;18176;49.502;11.754;2022-10-31T01:25:27;18.93;;;9.33;;
21183;SDS011;18176;49.502;11.754;2022-10-31T01:29:30;15.77;;;9.07;;
21183;SDS011;18176;49.502;11.754;2022-10-31T01:33:30;18.60;;;8.70;;
21183;SDS011;18176;49.502;11.754;2022-10-31T01:37:31;17.00;;;8.13;;
21183;SDS011;18176;49.502;11.754;2022-10-31T01:41:32;20.10;;;8.93;;
21183;SDS011;18176;49.502;11.754;2022-10-31T01:45:39;13.80;;;7.30;;
21183;SDS011;18176;49.502;11.754;2022-10-31T01:49:43;12.93;;;6.57;;
21183;SDS011;18176;49.502;11.754;2022-10-31T01:53:48;32.90;;;7.10;;
21183;SDS011;18176;49.502;11.754;2022-10-31T01:57:55;11.13;;;5.83;;
21183;SDS011;18176;49.502;11.754;2022-10-31T02:02:03;10.63;;;5.80;;
21183;SDS011;18176;49.502;11.754;2022-10-31T02:06:06;7.53;;;5.50;;
21183;SDS011;18176;49.502;11.754;2022-10-31T02:10:13;14.70;;;6.57;;
21183;SDS011;18176;49.502;11.754;2022-10-31T02:14:14;25.67;;;6.63;;
21183;SDS011;18176;49.502;11.754;2022-10-31T02:18:17;18.60;;;6.00;;
21183;SDS011;18176;49.502;11.754;2022-10-31T02:22:20;6.03;;;4.63;;
21183;SDS011;18176;49.502;11.754;2022-10-31T02:31:20;6.70;;;5.17;;
21183;SDS011;18176;49.502;11.754;2022-10-31T02:35:39;9.27;;;5.47;;
21183;SDS011;18176;49.502;11.754;2022-10-31T02:39:50;13.50;;;6.20;;
21183;SDS011;18176;49.502;11.754;2022-10-31T02:44:31;25.73;;;6.53;;
21183;SDS011;18176;49.502;11.754;2022-10-31T02:48:40;23.73;;;6.57;;
21183;SDS011;18176;49.502;11.754;2022-10-31T02:52:44;16.03;;;6.33;;
21183;SDS011;18176;49.502;11.754;2022-10-31T02:56:50;10.73;;;6.00;;
21183;SDS011;18176;49.502;11.754;2022-10-31T03:05:52;9.53;;;5.40;;
21183;SDS011;18176;49.502;11.754;2022-10-31T03:10:03;7.07;;;5.60;;
21183;SDS011;18176;49.502;11.754;2022-10-31T03:14:16;9.33;;;5.93;;
21183;SDS011;18176;49.502;11.754;2022-10-31T03:18:28;10.03;;;6.30;;
21183;SDS011;18176;49.502;11.754;2022-10-31T03:22:37;19.67;;;7.53;;
21183;SDS011;18176;49.502;11.754;2022-10-31T03:26:44;33.83;;;8.67;;
21183;SDS011;18176;49.502;11.754;2022-10-31T03:30:50;22.63;;;8.17;;
21183;SDS011;18176;49.502;11.754;2022-10-31T03:34:58;36.57;;;8.77;;
21183;SDS011;18176;49.502;11.754;2022-10-31T03:39:04;40.70;;;10.37;;
21183;SDS011;18176;49.502;11.754;2022-10-31T03:43:14;18.67;;;8.70;;
21183;SDS011;18176;49.502;11.754;2022-10-31T03:47:21;12.53;;;8.50;;
21183;SDS011;18176;49.502;11.754;2022-10-31T03:51:22;12.80;;;8.20;;
21183;SDS011;18176;49.502;11.754;2022-10-31T03:55:37;33.37;;;8.73;;
21183;SDS011;18176;49.502;11.754;2022-10-31T03:59:47;21.53;;;8.87;;
21183;SDS011;18176;49.502;11.754;2022-10-31T04:03:54;11.53;;;8.00;;
21183;SDS011;18176;49.502;11.754;2022-10-31T04:07:56;10.27;;;7.70;;
21183;SDS011;18176;49.502;11.754;2022-10-31T04:12:05;18.37;;;8.17;;
21183;SDS011;18176;49.502;11.754;2022-10-31T04:16:14;15.87;;;8.40;;
21183;SDS011;18176;49.502;11.754;2022-10-31T04:20:16;17.67;;;9.50;;
21183;SDS011;18176;49.502;11.754;2022-10-31T04:24:17;15.17;;;7.73;;
21183;SDS011;18176;49.502;11.754;2022-10-31T04:28:20;10.23;;;7.30;;
21183;SDS011;18176;49.502;11.754;2022-10-31T04:32:21;53.63;;;9.70;;
21183;SDS011;18176;49.502;11.754;2022-10-31T04:36:23;11.93;;;7.80;;
21183;SDS011;18176;49.502;11.754;2022-10-31T04:40:23;20.70;;;8.70;;
21183;SDS011;18176;49.502;11.754;2022-10-31T04:44:26;14.27;;;8.57;;
21183;SDS011;18176;49.502;11.754;2022-10-31T04:48:29;10.70;;;7.50;;
21183;SDS011;18176;49.502;11.754;2022-10-31T04:52:31;10.60;;;7.77;;
21183;SDS011;18176;49.502;11.754;2022-10-31T04:56:32;11.67;;;7.60;;
21183;SDS011;18176;49.502;11.754;2022-10-31T05:00:42;12.23;;;7.50;;
21183;SDS011;18176;49.502;11.754;2022-10-31T05:04:43;15.23;;;8.17;;
21183;SDS011;18176;49.502;11.754;2022-10-31T05:08:44;12.10;;;7.90;;
21183;SDS011;18176;49.502;11.754;2022-10-31T05:12:45;10.43;;;7.60;;
21183;SDS011;18176;49.502;11.754;2022-10-31T05:17:08;45.97;;;9.57;;
21183;SDS011;18176;49.502;11.754;2022-10-31T05:21:34;23.57;;;8.87;;
21183;SDS011;18176;49.502;11.754;2022-10-31T05:25:34;28.63;;;8.80;;
21183;SDS011;18176;49.502;11.754;2022-10-31T05:29:34;32.70;;;9.13;;
21183;SDS011;18176;49.502;11.754;2022-10-31T05:33:37;92.57;;;10.33;;
21183;SDS011;18176;49.502;11.754;2022-10-31T05:37:56;41.33;;;9.33;;
21183;SDS011;18176;49.502;11.754;2022-10-31T05:41:57;25.87;;;8.57;;
21183;SDS011;18176;49.502;11.754;2022-10-31T05:45:59;10.87;;;8.00;;
21183;SDS011;18176;49.502;11.754;2022-10-31T05:50:20;32.33;;;8.60;;
21183;SDS011;18176;49.502;11.754;2022-10-31T05:54:36;24.20;;;8.87;;
21183;SDS011;18176;49.502;11.754;2022-10-31T05:58:37;11.70;;;8.20;;
21183;SDS011;18176;49.502;11.754;2022-10-31T06:02:38;14.10;;;8.10;;
21183;SDS011;18176;49.502;11.754;2022-10-31T06:06:55;17.57;;;7.80;;
21183;SDS011;18176;49.502;11.754;2022-10-31T06:10:56;34.87;;;8.43;;
21183;SDS011;18176;49.502;11.754;2022-10-31T06:15:19;24.53;;;7.20;;
21183;SDS011;18176;49.502;11.754;2022-10-31T06:19:22;19.90;;;7.67;;
21183;SDS011;18176;49.502;11.754;2022-10-31T06:23:24;10.20;;;6.93;;
21183;SDS011;18176;49.502;11.754;2022-10-31T06:27:45;35.53;;;8.43;;
21183;SDS011;18176;49.502;11.754;2022-10-31T06:31:45;31.53;;;8.67;;
21183;SDS011;18176;49.502;11.754;2022-10-31T06:35:46;35.40;;;8.83;;
21183;SDS011;18176;49.502;11.754;2022-10-31T06:39:49;55.23;;;10.03;;
21183;SDS011;18176;49.502;11.754;2022-10-31T06:43:50;15.27;;;9.43;;
21183;SDS011;18176;49.502;11.754;2022-10-31T06:48:16;35.17;;;10.93;;
21183;SDS011;18176;49.502;11.754;2022-10-31T06:52:37;37.10;;;10.47;;
21183;SDS011;18176;49.502;11.754;2022-10-31T06:56:40;13.53;;;9.20;;
21183;SDS011;18176;49.502;11.754;2022-10-31T07:00:40;12.63;;;9.07;;
21183;SDS011;18176;49.502;11.754;2022-10-31T07:04:41;15.00;;;9.20;;
21183;SDS011;18176;49.502;11.754;2022-10-31T07:08:43;20.83;;;9.43;;
21183;SDS011;18176;49.502;11.754;2022-10-31T07:12:47;12.40;;;8.27;;
21183;SDS011;18176;49.502;11.754;2022-10-31T07:16:50;12.53;;;9.23;;
21183;SDS011;18176;49.502;11.754;2022-10-31T07:20:55;15.40;;;9.17;;
21183;SDS011;18176;49.502;11.754;2022-10-31T07:24:55;25.13;;;9.70;;
21183;SDS011;18176;49.502;11.754;2022-10-31T07:29:07;16.37;;;9.27;;
21183;SDS011;18176;49.502;11.754;2022-10-31T07:33:07;13.23;;;8.23;;
21183;SDS011;18176;49.502;11.754;2022-10-31T07:37:28;44.93;;;10.10;;
21183;SDS011;18176;49.502;11.754;2022-10-31T07:41:28;20.93;;;8.70;;
21183;SDS011;18176;49.502;11.754;2022-10-31T07:45:31;33.33;;;10.53;;
21183;SDS011;18176;49.502;11.754;2022-10-31T07:49:49;42.63;;;10.63;;
21183;SDS011;18176;49.502;11.754;2022-10-31T07:54:10;28.47;;;8.63;;
21183;SDS011;18176;49.502;11.754;2022-10-31T07:58:11;14.93;;;7.60;;
21183;SDS011;18176;49.502;11.754;2022-10-31T08:02:17;15.17;;;8.03;;
21183;SDS011;18176;49.502;11.754;2022-10-31T08:06:17;13.00;;;9.30;;
21183;SDS011;18176;49.502;11.754;2022-10-31T08:10:39;13.17;;;8.80;;
21183;SDS011;18176;49.502;11.754;2022-10-31T08:14:40;15.03;;;8.50;;
21183;SDS011;18176;49.502;11.754;2022-10-31T08:18:43;15.70;;;8.97;;
21183;SDS011;18176;49.502;11.754;2022-10-31T08:22:52;19.50;;;9.50;;
21183;SDS011;18176;49.502;11.754;2022-10-31T08:26:54;21.40;;;10.53;;
21183;SDS011;18176;49.502;11.754;2022-10-31T08:30:56;19.13;;;10.03;;
21183;SDS011;18176;49.502;11.754;2022-10-31T08:35:12;26.07;;;11.07;;
21183;SDS011;18176;49.502;11.754;2022-10-31T08:39:35;18.13;;;9.70;;
21183;SDS011;18176;49.502;11.754;2022-10-31T08:43:36;11.63;;;8.57;;
21183;SDS011;18176;49.502;11.754;2022-10-31T08:47:36;18.35;;;9.85;;
21183;SDS011;18176;49.502;11.754;2022-10-31T08:51:42;15.63;;;9.50;;
21183;SDS011;18176;49.502;11.754;2022-10-31T08:55:42;20.27;;;8.98;;
21183;SDS011;18176;49.502;11.754;2022-10-31T08:59:52;16.05;;;9.45;;
21183;SDS011;18176;49.502;11.754;2022-10-31T09:04:13;15.05;;;9.23;;
21183;SDS011;18176;49.502;11.754;2022-10-31T09:08:16;11.38;;;7.88;;
21183;SDS011;18176;49.502;11.754;2022-10-31T09:12:17;16.48;;;9.05;;
21183;SDS011;18176;49.502;11.754;2022-10-31T09:16:35;14.85;;;9.00;;
21183;SDS011;18176;49.502;11.754;2022-10-31T09:20:43;12.43;;;8.73;;
21183;SDS011;18176;49.502;11.754;2022-10-31T09:24:48;10.10;;;7.25;;
21183;SDS011;18176;49.502;11.754;2022-10-31T09:28:48;16.55;;;8.70;;
21183;SDS011;18176;49.502;11.754;2022-10-31T09:32:54;13.50;;;7.80;;
21183;SDS011;18176;49.502;11.754;2022-10-31T09:36:55;10.48;;;7.53;;
21183;SDS011;18176;49.502;11.754;2022-10-31T09:41:01;13.40;;;7.63;;
21183;SDS011;18176;49.502;11.754;2022-10-31T09:45:20;10.32;;;7.10;;
21183;SDS011;18176;49.502;11.754;2022-10-31T09:49:42;8.77;;;6.60;;
21183;SDS011;18176;49.502;11.754;2022-10-31T09:54:02;9.82;;;6.65;;
21183;SDS011;18176;49.502;11.754;2022-10-31T09:58:13;9.50;;;6.80;;
21183;SDS011;18176;49.502;11.754;2022-10-31T10:02:19;11.70;;;6.78;;
21183;SDS011;18176;49.502;11.754;2022-10-31T10:06:28;14.90;;;7.63;;
21183;SDS011;18176;49.502;11.754;2022-10-31T10:10:54;8.75;;;6.38;;
21183;SDS011;18176;49.502;11.754;2022-10-31T10:15:37;10.68;;;6.50;;
21183;SDS011;18176;49.502;11.754;2022-10-31T10:20:02;11.07;;;5.80;;
21183;SDS011;18176;49.502;11.754;2022-10-31T10:24:27;12.45;;;6.13;;
21183;SDS011;18176;49.502;11.754;2022-10-31T10:28:51;10.75;;;6.05;;
21183;SDS011;18176;49.502;11.754;2022-10-31T10:33:04;16.65;;;7.20;;
21183;SDS011;18176;49.502;11.754;2022-10-31T10:37:12;11.88;;;6.20;;
21183;SDS011;18176;49.502;11.754;2022-10-31T10:41:24;15.13;;;7.55;;
21183;SDS011;18176;49.502;11.754;2022-10-31T10:45:30;14.73;;;5.30;;
21183;SDS011;18176;49.502;11.754;2022-10-31T10:49:48;14.55;;;5.75;;
21183;SDS011;18176;49.502;11.754;2022-10-31T10:53:54;19.60;;;8.63;;
21183;SDS011;18176;49.502;11.754;2022-10-31T10:58:26;17.60;;;8.75;;
21183;SDS011;18176;49.502;11.754;2022-10-31T11:02:27;14.48;;;6.43;;
21183;SDS011;18176;49.502;11.754;2022-10-31T11:06:34;14.52;;;7.05;;
21183;SDS011;18176;49.502;11.754;2022-10-31T11:10:35;11.23;;;6.30;;
21183;SDS011;18176;49.502;11.754;2022-10-31T11:14:37;12.85;;;5.40;;
21183;SDS011;18176;49.502;11.754;2022-10-31T11:18:46;18.17;;;8.32;;
21183;SDS011;18176;49.502;11.754;2022-10-31T11:22:49;12.20;;;5.95;;
21183;SDS011;18176;49.502;11.754;2022-10-31T11:27:09;11.38;;;5.82;;
21183;SDS011;18176;49.502;11.754;2022-10-31T11:31:16;12.15;;;7.43;;
21183;SDS011;18176;49.502;11.754;2022-10-31T11:35:16;12.02;;;6.03;;
21183;SDS011;18176;49.502;11.754;2022-10-31T11:39:23;13.95;;;6.50;;
21183;SDS011;18176;49.502;11.754;2022-10-31T11:43:24;15.88;;;6.93;;
21183;SDS011;18176;49.502;11.754;2022-10-31T11:47:26;12.60;;;6.55;;
21183;SDS011;18176;49.502;11.754;2022-10-31T11:51:30;7.50;;;5.88;;
21183;SDS011;18176;49.502;11.754;2022-10-31T11:55:37;14.48;;;6.57;;
21183;SDS011;18176;49.502;11.754;2022-10-31T11:59:38;13.20;;;6.60;;
21183;SDS011;18176;49.502;11.754;2022-10-31T12:03:42;13.85;;;5.72;;
21183;SDS011;18176;49.502;11.754;2022-10-31T12:07:54;13.77;;;7.15;;
21183;SDS011;18176;49.502;11.754;2022-10-31T12:12:09;10.57;;;6.15;;
21183;SDS011;18176;49.502;11.754;2022-10-31T12:16:33;15.13;;;6.25;;
21183;SDS011;18176;49.502;11.754;2022-10-31T12:20:44;17.52;;;6.00;;
21183;SDS011;18176;49.502;11.754;2022-10-31T12:25:03;15.73;;;6.20;;
21183;SDS011;18176;49.502;11.754;2022-10-31T12:29:30;14.30;;;5.88;;
21183;SDS011;18176;49.502;11.754;2022-10-31T12:33:52;11.88;;;5.70;;
21183;SDS011;18176;49.502;11.754;2022-10-31T12:38:13;11.73;;;6.03;;
21183;SDS011;18176;49.502;11.754;2022-10-31T12:42:51;13.98;;;6.10;;
21183;SDS011;18176;49.502;11.754;2022-10-31T12:47:12;10.82;;;5.60;;
21183;SDS011;18176;49.502;11.754;2022-10-31T12:51:37;15.60;;;6.15;;
21183;SDS011;18176;49.502;11.754;2022-10-31T12:55:55;9.70;;;5.57;;
21183;SDS011;18176;49.502;11.754;2022-10-31T13:00:14;10.23;;;5.07;;
21183;SDS011;18176;49.502;11.754;2022-10-31T13:04:28;14.20;;;5.40;;
21183;SDS011;18176;49.502;11.754;2022-10-31T13:08:43;13.80;;;6.28;;
21183;SDS011;18176;49.502;11.754;2022-10-31T13:12:51;15.73;;;6.22;;
21183;SDS011;18176;49.502;11.754;2022-10-31T13:16:58;16.30;;;6.30;;
21183;SDS011;18176;49.502;11.754;2022-10-31T13:21:06;14.57;;;5.28;;
21183;SDS011;18176;49.502;11.754;2022-10-31T13:25:13;10.68;;;4.63;;
21183;SDS011;18176;49.502;11.754;2022-10-31T13:29:19;10.68;;;5.25;;
21183;SDS011;18176;49.502;11.754;2022-10-31T13:33:29;21.35;;;6.57;;
21183;SDS011;18176;49.502;11.754;2022-10-31T13:37:37;22.73;;;7.60;;
21183;SDS011;18176;49.502;11.754;2022-10-31T13:41:51;13.32;;;5.63;;
21183;SDS011;18176;49.502;11.754;2022-10-31T13:45:59;11.70;;;4.40;;
21183;SDS011;18176;49.502;11.754;2022-10-31T13:50:06;13.40;;;4.18;;
21183;SDS011;18176;49.502;11.754;2022-10-31T13:54:23;8.38;;;3.80;;
21183;SDS011;18176;49.502;11.754;2022-10-31T13:58:32;9.80;;;4.40;;
21183;SDS011;18176;49.502;11.754;2022-10-31T14:02:34;10.70;;;4.28;;
21183;SDS011;18176;49.502;11.754;2022-10-31T14:06:39;11.70;;;4.07;;
21183;SDS011;18176;49.502;11.754;2022-10-31T14:10:52;12.73;;;3.95;;
21183;SDS011;18176;49.502;11.754;2022-10-31T14:14:55;11.18;;;3.67;;
21183;SDS011;18176;49.502;11.754;2022-10-31T14:19:04;12.55;;;4.35;;
21183;SDS011;18176;49.502;11.754;2022-10-31T14:27:46;13.52;;;3.90;;
21183;SDS011;18176;49.502;11.754;2022-10-31T14:31:52;14.20;;;3.80;;
21183;SDS011;18176;49.502;11.754;2022-10-31T14:35:56;9.98;;;3.72;;
21183;SDS011;18176;49.502;11.754;2022-10-31T14:40:06;10.77;;;3.78;;
21183;SDS011;18176;49.502;11.754;2022-10-31T14:44:33;10.95;;;4.18;;
21183;SDS011;18176;49.502;11.754;2022-10-31T14:49:12;12.57;;;3.80;;
21183;SDS011;18176;49.502;11.754;2022-10-31T14:53:31;8.00;;;3.75;;
21183;SDS011;18176;49.502;11.754;2022-10-31T14:57:35;6.57;;;3.13;;
21183;SDS011;18176;49.502;11.754;2022-10-31T15:01:48;9.73;;;3.63;;
21183;SDS011;18176;49.502;11.754;2022-10-31T15:05:58;9.65;;;3.63;;
21183;SDS011;18176;49.502;11.754;2022-10-31T15:10:03;7.50;;;3.20;;
21183;SDS011;18176;49.502;11.754;2022-10-31T15:14:22;7.03;;;3.28;;
21183;SDS011;18176;49.502;11.754;2022-10-31T15:18:27;8.02;;;3.58;;
21183;SDS011;18176;49.502;11.754;2022-10-31T15:22:28;8.07;;;3.70;;
21183;SDS011;18176;49.502;11.754;2022-10-31T15:26:31;10.07;;;3.35;;
21183;SDS011;18176;49.502;11.754;2022-10-31T15:30:38;11.35;;;3.65;;
21183;SDS011;18176;49.502;11.754;2022-10-31T15:34:41;9.85;;;4.03;;
21183;SDS011;18176;49.502;11.754;2022-10-31T15:38:43;19.98;;;9.13;;
21183;SDS011;18176;49.502;11.754;2022-10-31T15:42:43;16.70;;;6.82;;
21183;SDS011;18176;49.502;11.754;2022-10-31T15:46:54;12.10;;;6.03;;
21183;SDS011;18176;49.502;11.754;2022-10-31T15:50:59;10.57;;;4.68;;
21183;SDS011;18176;49.502;11.754;2022-10-31T15:55:02;10.77;;;5.75;;
21183;SDS011;18176;49.502;11.754;2022-10-31T15:59:19;11.73;;;5.18;;
21183;SDS011;18176;49.502;11.754;2022-10-31T16:03:24;15.98;;;7.13;;
21183;SDS011;18176;49.502;11.754;2022-10-31T16:07:29;13.10;;;6.25;;
21183;SDS011;18176;49.502;11.754;2022-10-31T16:11:33;14.25;;;5.85;;
21183;SDS011;18176;49.502;11.754;2022-10-31T16:15:37;9.75;;;5.25;;
21183;SDS011;18176;49.502;11.754;2022-10-31T16:20:16;11.52;;;5.35;;
21183;SDS011;18176;49.502;11.754;2022-10-31T16:24:25;17.73;;;8.20;;
21183;SDS011;18176;49.502;11.754;2022-10-31T16:28:36;40.83;;;19.02;;
21183;SDS011;18176;49.502;11.754;2022-10-31T16:32:51;28.75;;;13.60;;
21183;SDS011;18176;49.502;11.754;2022-10-31T16:36:55;29.00;;;14.27;;
21183;SDS011;18176;49.502;11.754;2022-10-31T16:40:57;26.55;;;14.00;;
21183;SDS011;18176;49.502;11.754;2022-10-31T16:45:00;31.27;;;14.27;;
21183;SDS011;18176;49.502;11.754;2022-10-31T16:49:00;25.42;;;12.73;;
21183;SDS011;18176;49.502;11.754;2022-10-31T16:53:00;25.13;;;12.73;;
21183;SDS011;18176;49.502;11.754;2022-10-31T16:57:13;25.90;;;16.17;;
21183;SDS011;18176;49.502;11.754;2022-10-31T17:01:16;36.00;;;20.15;;
21183;SDS011;18176;49.502;11.754;2022-10-31T17:05:17;27.30;;;15.95;;
21183;SDS011;18176;49.502;11.754;2022-10-31T17:09:25;32.60;;;16.65;;
21183;SDS011;18176;49.502;11.754;2022-10-31T17:13:28;32.10;;;18.20;;
21183;SDS011;18176;49.502;11.754;2022-10-31T17:17:32;31.05;;;17.67;;
21183;SDS011;18176;49.502;11.754;2022-10-31T17:21:33;86.70;;;46.88;;
21183;SDS011;18176;49.502;11.754;2022-10-31T17:25:34;40.78;;;24.55;;
21183;SDS011;18176;49.502;11.754;2022-10-31T17:29:37;30.30;;;16.45;;
21183;SDS011;18176;49.502;11.754;2022-10-31T17:33:37;35.97;;;20.48;;
21183;SDS011;18176;49.502;11.754;2022-10-31T17:37:39;52.65;;;32.08;;
21183;SDS011;18176;49.502;11.754;2022-10-31T17:41:40;42.15;;;22.55;;
21183;SDS011;18176;49.502;11.754;2022-10-31T17:45:43;30.10;;;18.88;;
21183;SDS011;18176;49.502;11.754;2022-10-31T17:49:43;30.35;;;17.10;;
21183;SDS011;18176;49.502;11.754;2022-10-31T17:53:43;29.33;;;16.70;;
21183;SDS011;18176;49.502;11.754;2022-10-31T17:57:44;25.30;;;14.10;;
21183;SDS011;18176;49.502;11.754;2022-10-31T18:01:47;31.70;;;15.23;;
21183;SDS011;18176;49.502;11.754;2022-10-31T18:05:50;31.33;;;17.93;;
21183;SDS011;18176;49.502;11.754;2022-10-31T18:09:52;26.50;;;15.63;;
21183;SDS011;18176;49.502;11.754;2022-10-31T18:13:53;31.47;;;17.60;;
21183;SDS011;18176;49.502;11.754;2022-10-31T18:17:57;30.63;;;17.80;;
21183;SDS011;18176;49.502;11.754;2022-10-31T18:21:58;30.60;;;19.23;;
21183;SDS011;18176;49.502;11.754;2022-10-31T18:25:59;28.70;;;18.23;;
21183;SDS011;18176;49.502;11.754;2022-10-31T18:29:59;34.67;;;20.77;;
21183;SDS011;18176;49.502;11.754;2022-10-31T18:34:02;34.77;;;21.97;;
21183;SDS011;18176;49.502;11.754;2022-10-31T18:38:02;33.93;;;21.53;;
21183;SDS011;18176;49.502;11.754;2022-10-31T18:42:03;47.53;;;30.77;;
21183;SDS011;18176;49.502;11.754;2022-10-31T18:46:04;43.27;;;28.20;;
21183;SDS011;18176;49.502;11.754;2022-10-31T18:50:09;43.50;;;29.00;;
21183;SDS011;18176;49.502;11.754;2022-10-31T18:54:10;35.50;;;25.37;;
21183;SDS011;18176;49.502;11.754;2022-10-31T18:58:10;38.97;;;25.03;;
21183;SDS011;18176;49.502;11.754;2022-10-31T19:02:11;41.93;;;28.43;;
21183;SDS011;18176;49.502;11.754;2022-10-31T19:06:16;36.60;;;21.63;;
21183;SDS011;18176;49.502;11.754;2022-10-31T19:10:16;37.70;;;25.20;;
21183;SDS011;18176;49.502;11.754;2022-10-31T19:14:16;52.53;;;32.77;;
21183;SDS011;18176;49.502;11.754;2022-10-31T19:18:17;70.00;;;42.60;;
21183;SDS011;18176;49.502;11.754;2022-10-31T19:22:19;56.17;;;36.97;;
21183;SDS011;18176;49.502;11.754;2022-10-31T19:26:19;59.33;;;38.80;;
21183;SDS011;18176;49.502;11.754;2022-10-31T19:30:20;63.90;;;40.17;;
21183;SDS011;18176;49.502;11.754;2022-10-31T19:34:20;53.47;;;37.10;;
21183;SDS011;18176;49.502;11.754;2022-10-31T19:38:23;71.00;;;41.37;;
21183;SDS011;18176;49.502;11.754;2022-10-31T19:42:23;53.87;;;30.90;;
21183;SDS011;18176;49.502;11.754;2022-10-31T19:46:24;51.13;;;31.50;;
21183;SDS011;18176;49.502;11.754;2022-10-31T19:50:44;52.33;;;33.27;;
21183;SDS011;18176;49.502;11.754;2022-10-31T19:54:47;37.77;;;25.90;;
21183;SDS011;18176;49.502;11.754;2022-10-31T19:58:47;47.83;;;30.17;;
21183;SDS011;18176;49.502;11.754;2022-10-31T20:02:47;54.00;;;34.37;;
21183;SDS011;18176;49.502;11.754;2022-10-31T20:06:48;46.50;;;31.13;;
21183;SDS011;18176;49.502;11.754;2022-10-31T20:10:57;57.43;;;36.33;;
21183;SDS011;18176;49.502;11.754;2022-10-31T20:14:59;51.27;;;33.27;;
21183;SDS011;18176;49.502;11.754;2022-10-31T20:18:59;54.70;;;32.73;;
21183;SDS011;18176;49.502;11.754;2022-10-31T20:22:59;51.00;;;32.57;;
21183;SDS011;18176;49.502;11.754;2022-10-31T20:27:02;59.77;;;35.63;;
21183;SDS011;18176;49.502;11.754;2022-10-31T20:31:06;52.67;;;32.73;;
21183;SDS011;18176;49.502;11.754;2022-10-31T20:35:08;49.20;;;32.63;;
21183;SDS011;18176;49.502;11.754;2022-10-31T20:39:08;53.63;;;33.57;;
21183;SDS011;18176;49.502;11.754;2022-10-31T20:43:11;47.10;;;29.67;;
21183;SDS011;18176;49.502;11.754;2022-10-31T20:47:12;43.30;;;28.10;;
21183;SDS011;18176;49.502;11.754;2022-10-31T20:51:18;44.40;;;28.77;;
21183;SDS011;18176;49.502;11.754;2022-10-31T20:55:20;41.57;;;27.93;;
21183;SDS011;18176;49.502;11.754;2022-10-31T20:59:23;42.47;;;28.23;;
21183;SDS011;18176;49.502;11.754;2022-10-31T21:03:23;43.17;;;26.10;;
21183;SDS011;18176;49.502;11.754;2022-10-31T21:07:25;34.10;;;22.53;;
21183;SDS011;18176;49.502;11.754;2022-10-31T21:11:28;32.53;;;20.47;;
21183;SDS011;18176;49.502;11.754;2022-10-31T21:15:31;30.50;;;19.67;;
21183;SDS011;18176;49.502;11.754;2022-10-31T21:19:31;40.33;;;23.53;;
21183;SDS011;18176;49.502;11.754;2022-10-31T21:23:32;60.63;;;35.53;;
21183;SDS011;18176;49.502;11.754;2022-10-31T21:27:33;49.97;;;30.53;;
21183;SDS011;18176;49.502;11.754;2022-10-31T21:31:36;58.77;;;32.90;;
21183;SDS011;18176;49.502;11.754;2022-10-31T21:35:38;47.13;;;29.97;;
21183;SDS011;18176;49.502;11.754;2022-10-31T21:39:38;43.63;;;27.07;;
21183;SDS011;18176;49.502;11.754;2022-10-31T21:43:46;45.93;;;25.27;;
21183;SDS011;18176;49.502;11.754;2022-10-31T21:47:52;29.07;;;17.07;;
21183;SDS011;18176;49.502;11.754;2022-10-31T21:51:52;29.07;;;17.93;;
21183;SDS011;18176;49.502;11.754;2022-10-31T21:55:53;30.13;;;18.97;;
21183;SDS011;18176;49.502;11.754;2022-10-31T21:59:53;27.87;;;14.70;;
21183;SDS011;18176;49.502;11.754;2022-10-31T22:03:56;24.90;;;13.47;;
21183;SDS011;18176;49.502;11.754;2022-10-31T22:07:57;22.13;;;12.30;;
21183;SDS011;18176;49.502;11.754;2022-10-31T22:11:57;43.47;;;17.63;;
21183;SDS011;18176;49.502;11.754;2022-10-31T22:16:02;43.73;;;19.97;;
21183;SDS011;18176;49.502;11.754;2022-10-31T22:20:08;41.17;;;20.90;;
21183;SDS011;18176;49.502;11.754;2022-10-31T22:24:09;57.47;;;24.50;;
21183;SDS011;18176;49.502;11.754;2022-10-31T22:28:10;49.57;;;24.33;;
21183;SDS011;18176;49.502;11.754;2022-10-31T22:32:10;55.87;;;24.93;;
21183;SDS011;18176;49.502;11.754;2022-10-31T22:36:14;57.87;;;22.87;;
21183;SDS011;18176;49.502;11.754;2022-10-31T22:40:16;49.80;;;19.53;;
21183;SDS011;18176;49.502;11.754;2022-10-31T22:44:16;44.30;;;19.90;;
21183;SDS011;18176;49.502;11.754;2022-10-31T22:48:16;44.50;;;19.97;;
21183;SDS011;18176;49.502;11.754;2022-10-31T22:52:19;38.50;;;19.60;;
21183;SDS011;18176;49.502;11.754;2022-10-31T22:56:20;49.77;;;23.93;;
21183;SDS011;18176;49.502;11.754;2022-10-31T23:00:22;44.93;;;21.77;;
21183;SDS011;18176;49.502;11.754;2022-10-31T23:04:22;43.57;;;23.90;;
21183;SDS011;18176;49.502;11.754;2022-10-31T23:08:25;76.90;;;28.77;;
21183;SDS011;18176;49.502;11.754;2022-10-31T23:12:28;57.43;;;26.00;;
21183;SDS011;18176;49.502;11.754;2022-10-31T23:16:41;40.80;;;22.37;;
21183;SDS011;18176;49.502;11.754;2022-10-31T23:20:48;60.50;;;27.23;;
21183;SDS011;18176;49.502;11.754;2022-10-31T23:24:52;56.10;;;26.13;;
21183;SDS011;18176;49.502;11.754;2022-10-31T23:28:52;61.97;;;25.60;;
21183;SDS011;18176;49.502;11.754;2022-10-31T23:32:49;44.63;;;23.37;;
21183;SDS011;18176;49.502;11.754;2022-10-31T23:36:50;46.13;;;22.37;;
21183;SDS011;18176;49.502;11.754;2022-10-31T23:40:53;41.60;;;21.10;;
21183;SDS011;18176;49.502;11.754;2022-10-31T23:44:53;47.03;;;22.37;;
21183;SDS011;18176;49.502;11.754;2022-10-31T23:48:54;40.87;;;19.80;;
21183;SDS011;18176;49.502;11.754;2022-10-31T23:52:54;25.50;;;15.80;;
21183;SDS011;18176;49.502;11.754;2022-10-31T23:56:57;37.00;;;15.67;;
